sensor_id;sensor_type;location;lat;lon;timestamp;temperature;humidity
9542;DHT22;4809;48.224;8.572;2022-08-19T00:02:24;17.80;93.30
9542;DHT22;4809;48.224;8.572;2022-08-19T00:04:49;17.70;93.50
9542;DHT22;4809;48.224;8.572;2022-08-19T00:07:18;17.80;93.20
9542;DHT22;4809;48.224;8.572;2022-08-19T00:09:44;17.80;93.20
9542;DHT22;4809;48.224;8.572;2022-08-19T00:12:10;17.80;93.20
9542;DHT22;4809;48.224;8.572;2022-08-19T00:14:37;17.80;93.20
9542;DHT22;4809;48.224;8.572;2022-08-19T00:17:05;17.80;93.20
9542;DHT22;4809;48.224;8.572;2022-08-19T00:19:32;17.80;93.20
9542;DHT22;4809;48.224;8.572;2022-08-19T00:21:58;17.80;93.10
9542;DHT22;4809;48.224;8.572;2022-08-19T00:24:25;17.80;93.00
9542;DHT22;4809;48.224;8.572;2022-08-19T00:26:51;17.80;93.20
9542;DHT22;4809;48.224;8.572;2022-08-19T00:29:19;17.80;93.20
9542;DHT22;4809;48.224;8.572;2022-08-19T00:31:45;17.80;93.30
9542;DHT22;4809;48.224;8.572;2022-08-19T00:34:12;17.80;93.20
9542;DHT22;4809;48.224;8.572;2022-08-19T00:36:39;17.80;93.30
9542;DHT22;4809;48.224;8.572;2022-08-19T00:39:05;17.80;93.30
9542;DHT22;4809;48.224;8.572;2022-08-19T00:41:31;17.80;93.50
9542;DHT22;4809;48.224;8.572;2022-08-19T00:44:15;17.80;93.50
9542;DHT22;4809;48.224;8.572;2022-08-19T00:46:44;17.80;93.50
9542;DHT22;4809;48.224;8.572;2022-08-19T00:49:31;17.80;93.50
9542;DHT22;4809;48.224;8.572;2022-08-19T00:52:07;17.80;93.50
9542;DHT22;4809;48.224;8.572;2022-08-19T00:54:35;17.80;93.50
9542;DHT22;4809;48.224;8.572;2022-08-19T00:57:04;17.70;93.50
9542;DHT22;4809;48.224;8.572;2022-08-19T00:59:31;17.80;93.70
9542;DHT22;4809;48.224;8.572;2022-08-19T01:01:59;17.70;93.60
9542;DHT22;4809;48.224;8.572;2022-08-19T01:04:25;17.70;93.60
9542;DHT22;4809;48.224;8.572;2022-08-19T01:06:50;17.70;93.60
9542;DHT22;4809;48.224;8.572;2022-08-19T01:09:16;17.70;93.50
9542;DHT22;4809;48.224;8.572;2022-08-19T01:11:43;17.70;93.50
9542;DHT22;4809;48.224;8.572;2022-08-19T01:14:10;17.70;93.50
9542;DHT22;4809;48.224;8.572;2022-08-19T01:16:38;17.70;93.50
9542;DHT22;4809;48.224;8.572;2022-08-19T01:19:12;17.70;93.60
9542;DHT22;4809;48.224;8.572;2022-08-19T01:21:47;17.70;93.50
9542;DHT22;4809;48.224;8.572;2022-08-19T01:24:16;17.60;93.50
9542;DHT22;4809;48.224;8.572;2022-08-19T01:26:43;17.60;93.70
9542;DHT22;4809;48.224;8.572;2022-08-19T01:29:10;17.60;93.50
9542;DHT22;4809;48.224;8.572;2022-08-19T01:31:36;17.60;93.60
9542;DHT22;4809;48.224;8.572;2022-08-19T01:34:03;17.60;93.50
9542;DHT22;4809;48.224;8.572;2022-08-19T01:36:35;17.70;93.40
9542;DHT22;4809;48.224;8.572;2022-08-19T01:39:05;17.70;93.40
9542;DHT22;4809;48.224;8.572;2022-08-19T01:41:32;17.70;93.30
9542;DHT22;4809;48.224;8.572;2022-08-19T01:43:58;17.70;93.40
9542;DHT22;4809;48.224;8.572;2022-08-19T01:46:24;17.70;93.50
9542;DHT22;4809;48.224;8.572;2022-08-19T01:48:51;17.70;93.40
9542;DHT22;4809;48.224;8.572;2022-08-19T01:51:16;17.60;93.60
9542;DHT22;4809;48.224;8.572;2022-08-19T01:53:42;17.60;93.60
9542;DHT22;4809;48.224;8.572;2022-08-19T01:56:08;17.60;93.70
9542;DHT22;4809;48.224;8.572;2022-08-19T01:58:43;17.60;93.70
9542;DHT22;4809;48.224;8.572;2022-08-19T02:01:11;17.50;93.60
9542;DHT22;4809;48.224;8.572;2022-08-19T02:03:38;17.60;93.60
9542;DHT22;4809;48.224;8.572;2022-08-19T02:06:03;17.60;93.60
9542;DHT22;4809;48.224;8.572;2022-08-19T02:08:32;17.50;93.60
9542;DHT22;4809;48.224;8.572;2022-08-19T02:10:58;17.50;93.60
9542;DHT22;4809;48.224;8.572;2022-08-19T02:13:27;17.50;93.70
9542;DHT22;4809;48.224;8.572;2022-08-19T02:15:52;17.50;93.70
9542;DHT22;4809;48.224;8.572;2022-08-19T02:18:18;17.50;93.60
9542;DHT22;4809;48.224;8.572;2022-08-19T02:20:44;17.50;93.70
9542;DHT22;4809;48.224;8.572;2022-08-19T02:23:13;17.40;93.60
9542;DHT22;4809;48.224;8.572;2022-08-19T02:25:39;17.50;93.70
9542;DHT22;4809;48.224;8.572;2022-08-19T02:28:05;17.50;93.60
9542;DHT22;4809;48.224;8.572;2022-08-19T02:30:31;17.40;93.60
9542;DHT22;4809;48.224;8.572;2022-08-19T02:32:57;17.50;93.60
9542;DHT22;4809;48.224;8.572;2022-08-19T02:35:23;17.40;93.60
9542;DHT22;4809;48.224;8.572;2022-08-19T02:37:49;17.40;93.70
9542;DHT22;4809;48.224;8.572;2022-08-19T02:40:33;17.40;93.80
9542;DHT22;4809;48.224;8.572;2022-08-19T02:43:00;17.40;93.80
9542;DHT22;4809;48.224;8.572;2022-08-19T02:45:31;17.40;93.80
9542;DHT22;4809;48.224;8.572;2022-08-19T02:47:57;17.40;93.80
9542;DHT22;4809;48.224;8.572;2022-08-19T02:50:22;17.40;93.80
9542;DHT22;4809;48.224;8.572;2022-08-19T02:52:48;17.40;93.80
9542;DHT22;4809;48.224;8.572;2022-08-19T02:55:14;17.40;93.80
9542;DHT22;4809;48.224;8.572;2022-08-19T02:57:40;17.30;93.80
9542;DHT22;4809;48.224;8.572;2022-08-19T03:00:08;17.30;93.80
9542;DHT22;4809;48.224;8.572;2022-08-19T03:02:37;17.30;93.80
9542;DHT22;4809;48.224;8.572;2022-08-19T03:05:04;17.30;93.90
9542;DHT22;4809;48.224;8.572;2022-08-19T03:07:30;17.30;93.80
9542;DHT22;4809;48.224;8.572;2022-08-19T03:09:56;17.30;93.80
9542;DHT22;4809;48.224;8.572;2022-08-19T03:12:22;17.30;93.90
9542;DHT22;4809;48.224;8.572;2022-08-19T03:14:47;17.30;93.80
9542;DHT22;4809;48.224;8.572;2022-08-19T03:17:13;17.30;93.70
9542;DHT22;4809;48.224;8.572;2022-08-19T03:19:39;17.30;93.70
9542;DHT22;4809;48.224;8.572;2022-08-19T03:22:05;17.30;93.80
9542;DHT22;4809;48.224;8.572;2022-08-19T03:24:31;17.20;93.80
9542;DHT22;4809;48.224;8.572;2022-08-19T03:26:57;17.20;93.90
9542;DHT22;4809;48.224;8.572;2022-08-19T03:29:23;17.20;93.80
9542;DHT22;4809;48.224;8.572;2022-08-19T03:31:49;17.20;93.80
9542;DHT22;4809;48.224;8.572;2022-08-19T03:34:29;17.20;93.80
9542;DHT22;4809;48.224;8.572;2022-08-19T03:36:58;17.30;93.80
9542;DHT22;4809;48.224;8.572;2022-08-19T03:39:24;17.30;93.70
9542;DHT22;4809;48.224;8.572;2022-08-19T03:41:52;17.20;93.80
9542;DHT22;4809;48.224;8.572;2022-08-19T03:44:20;17.20;93.90
9542;DHT22;4809;48.224;8.572;2022-08-19T03:46:49;17.20;93.80
9542;DHT22;4809;48.224;8.572;2022-08-19T03:49:16;17.20;93.90
9542;DHT22;4809;48.224;8.572;2022-08-19T03:51:43;17.20;94.00
9542;DHT22;4809;48.224;8.572;2022-08-19T03:54:12;17.30;93.90
9542;DHT22;4809;48.224;8.572;2022-08-19T03:56:39;17.30;93.90
9542;DHT22;4809;48.224;8.572;2022-08-19T03:59:08;17.30;93.80
9542;DHT22;4809;48.224;8.572;2022-08-19T04:01:34;17.30;93.70
9542;DHT22;4809;48.224;8.572;2022-08-19T04:04:01;17.30;93.80
9542;DHT22;4809;48.224;8.572;2022-08-19T04:06:32;17.30;93.70
9542;DHT22;4809;48.224;8.572;2022-08-19T04:08:59;17.20;93.70
9542;DHT22;4809;48.224;8.572;2022-08-19T04:11:30;17.20;93.80
9542;DHT22;4809;48.224;8.572;2022-08-19T04:13:56;17.20;93.80
9542;DHT22;4809;48.224;8.572;2022-08-19T04:16:24;17.20;93.80
9542;DHT22;4809;48.224;8.572;2022-08-19T04:18:50;17.20;93.80
9542;DHT22;4809;48.224;8.572;2022-08-19T04:21:20;17.20;93.80
9542;DHT22;4809;48.224;8.572;2022-08-19T04:23:46;17.20;93.70
9542;DHT22;4809;48.224;8.572;2022-08-19T04:26:18;17.20;93.70
9542;DHT22;4809;48.224;8.572;2022-08-19T04:28:44;17.20;93.50
9542;DHT22;4809;48.224;8.572;2022-08-19T04:31:25;17.20;93.60
9542;DHT22;4809;48.224;8.572;2022-08-19T04:33:55;17.20;93.60
9542;DHT22;4809;48.224;8.572;2022-08-19T04:36:28;17.20;93.80
9542;DHT22;4809;48.224;8.572;2022-08-19T04:38:57;17.20;93.60
9542;DHT22;4809;48.224;8.572;2022-08-19T04:41:23;17.20;93.60
9542;DHT22;4809;48.224;8.572;2022-08-19T04:44:07;17.20;93.70
9542;DHT22;4809;48.224;8.572;2022-08-19T04:46:33;17.10;93.70
9542;DHT22;4809;48.224;8.572;2022-08-19T04:49:00;17.10;93.70
9542;DHT22;4809;48.224;8.572;2022-08-19T04:51:28;17.10;93.80
9542;DHT22;4809;48.224;8.572;2022-08-19T04:53:56;17.10;93.80
9542;DHT22;4809;48.224;8.572;2022-08-19T04:56:22;17.00;93.80
9542;DHT22;4809;48.224;8.572;2022-08-19T04:58:48;17.10;93.90
9542;DHT22;4809;48.224;8.572;2022-08-19T05:01:22;17.10;93.70
9542;DHT22;4809;48.224;8.572;2022-08-19T05:03:49;17.10;93.70
9542;DHT22;4809;48.224;8.572;2022-08-19T05:06:17;17.10;93.70
9542;DHT22;4809;48.224;8.572;2022-08-19T05:08:44;17.10;93.70
9542;DHT22;4809;48.224;8.572;2022-08-19T05:11:24;17.10;93.70
9542;DHT22;4809;48.224;8.572;2022-08-19T05:13:51;17.10;93.70
9542;DHT22;4809;48.224;8.572;2022-08-19T05:16:20;17.10;93.70
9542;DHT22;4809;48.224;8.572;2022-08-19T05:18:47;17.10;93.70
9542;DHT22;4809;48.224;8.572;2022-08-19T05:21:32;17.20;93.60
9542;DHT22;4809;48.224;8.572;2022-08-19T05:24:18;17.20;93.50
9542;DHT22;4809;48.224;8.572;2022-08-19T05:26:46;17.20;93.30
9542;DHT22;4809;48.224;8.572;2022-08-19T05:29:14;17.20;93.40
9542;DHT22;4809;48.224;8.572;2022-08-19T05:31:40;17.20;93.40
9542;DHT22;4809;48.224;8.572;2022-08-19T05:34:06;17.20;93.20
9542;DHT22;4809;48.224;8.572;2022-08-19T05:36:40;17.30;93.30
9542;DHT22;4809;48.224;8.572;2022-08-19T05:39:09;17.20;93.20
9542;DHT22;4809;48.224;8.572;2022-08-19T05:41:35;17.20;93.30
9542;DHT22;4809;48.224;8.572;2022-08-19T05:44:04;17.20;93.30
9542;DHT22;4809;48.224;8.572;2022-08-19T05:46:37;17.30;93.20
9542;DHT22;4809;48.224;8.572;2022-08-19T05:49:06;17.30;93.20
9542;DHT22;4809;48.224;8.572;2022-08-19T05:51:33;17.30;93.10
9542;DHT22;4809;48.224;8.572;2022-08-19T05:54:00;17.40;93.10
9542;DHT22;4809;48.224;8.572;2022-08-19T05:56:26;17.40;93.10
9542;DHT22;4809;48.224;8.572;2022-08-19T05:58:52;17.30;93.10
9542;DHT22;4809;48.224;8.572;2022-08-19T06:01:20;17.30;93.10
9542;DHT22;4809;48.224;8.572;2022-08-19T06:03:46;17.30;93.10
9542;DHT22;4809;48.224;8.572;2022-08-19T06:06:14;17.30;93.20
9542;DHT22;4809;48.224;8.572;2022-08-19T06:08:41;17.30;93.20
9542;DHT22;4809;48.224;8.572;2022-08-19T06:11:23;17.30;93.20
9542;DHT22;4809;48.224;8.572;2022-08-19T06:13:53;17.30;93.20
9542;DHT22;4809;48.224;8.572;2022-08-19T06:16:20;17.30;93.10
9542;DHT22;4809;48.224;8.572;2022-08-19T06:19:01;17.30;93.10
9542;DHT22;4809;48.224;8.572;2022-08-19T06:21:28;17.40;93.10
9542;DHT22;4809;48.224;8.572;2022-08-19T06:23:55;17.30;93.10
9542;DHT22;4809;48.224;8.572;2022-08-19T06:26:22;17.30;93.10
9542;DHT22;4809;48.224;8.572;2022-08-19T06:28:49;17.30;93.10
9542;DHT22;4809;48.224;8.572;2022-08-19T06:31:23;17.30;93.10
9542;DHT22;4809;48.224;8.572;2022-08-19T06:33:50;17.30;93.10
9542;DHT22;4809;48.224;8.572;2022-08-19T06:36:25;17.30;93.00
9542;DHT22;4809;48.224;8.572;2022-08-19T06:38:58;17.30;92.90
9542;DHT22;4809;48.224;8.572;2022-08-19T06:41:28;17.30;93.20
9542;DHT22;4809;48.224;8.572;2022-08-19T06:43:54;17.40;93.00
9542;DHT22;4809;48.224;8.572;2022-08-19T06:46:20;17.40;93.00
9542;DHT22;4809;48.224;8.572;2022-08-19T06:48:47;17.40;93.00
9542;DHT22;4809;48.224;8.572;2022-08-19T06:51:15;17.40;93.00
9542;DHT22;4809;48.224;8.572;2022-08-19T06:53:47;17.40;93.00
9542;DHT22;4809;48.224;8.572;2022-08-19T06:56:18;17.50;93.00
9542;DHT22;4809;48.224;8.572;2022-08-19T06:58:45;17.50;93.10
9542;DHT22;4809;48.224;8.572;2022-08-19T07:01:12;17.60;92.90
9542;DHT22;4809;48.224;8.572;2022-08-19T07:03:38;17.70;92.70
9542;DHT22;4809;48.224;8.572;2022-08-19T07:06:10;17.70;92.60
9542;DHT22;4809;48.224;8.572;2022-08-19T07:08:37;17.80;92.70
9542;DHT22;4809;48.224;8.572;2022-08-19T07:11:11;17.80;92.50
9542;DHT22;4809;48.224;8.572;2022-08-19T07:13:39;17.90;92.20
9542;DHT22;4809;48.224;8.572;2022-08-19T07:16:06;17.90;92.10
9542;DHT22;4809;48.224;8.572;2022-08-19T07:18:33;18.00;92.00
9542;DHT22;4809;48.224;8.572;2022-08-19T07:21:11;18.00;91.90
9542;DHT22;4809;48.224;8.572;2022-08-19T07:23:37;18.10;92.00
9542;DHT22;4809;48.224;8.572;2022-08-19T07:26:12;18.10;91.70
9542;DHT22;4809;48.224;8.572;2022-08-19T07:28:38;18.20;91.60
9542;DHT22;4809;48.224;8.572;2022-08-19T07:31:15;18.20;91.60
9542;DHT22;4809;48.224;8.572;2022-08-19T07:33:42;18.30;91.60
9542;DHT22;4809;48.224;8.572;2022-08-19T07:36:10;18.30;91.30
9542;DHT22;4809;48.224;8.572;2022-08-19T07:38:41;18.30;91.00
9542;DHT22;4809;48.224;8.572;2022-08-19T07:41:10;18.40;91.00
9542;DHT22;4809;48.224;8.572;2022-08-19T07:43:37;18.40;91.10
9542;DHT22;4809;48.224;8.572;2022-08-19T07:46:03;18.50;91.00
9542;DHT22;4809;48.224;8.572;2022-08-19T07:48:28;18.60;91.00
9542;DHT22;4809;48.224;8.572;2022-08-19T07:50:56;18.60;90.90
9542;DHT22;4809;48.224;8.572;2022-08-19T07:53:24;18.60;90.40
9542;DHT22;4809;48.224;8.572;2022-08-19T07:55:50;18.70;90.70
9542;DHT22;4809;48.224;8.572;2022-08-19T07:58:19;18.60;90.30
9542;DHT22;4809;48.224;8.572;2022-08-19T08:00:47;18.60;90.30
9542;DHT22;4809;48.224;8.572;2022-08-19T08:03:16;18.70;90.60
9542;DHT22;4809;48.224;8.572;2022-08-19T08:05:42;18.60;90.40
9542;DHT22;4809;48.224;8.572;2022-08-19T08:08:27;18.60;90.70
9542;DHT22;4809;48.224;8.572;2022-08-19T08:11:05;18.60;90.30
9542;DHT22;4809;48.224;8.572;2022-08-19T08:13:33;18.60;90.40
9542;DHT22;4809;48.224;8.572;2022-08-19T08:16:02;18.60;90.40
9542;DHT22;4809;48.224;8.572;2022-08-19T08:18:28;18.60;89.90
9542;DHT22;4809;48.224;8.572;2022-08-19T08:20:55;18.70;90.10
9542;DHT22;4809;48.224;8.572;2022-08-19T08:23:22;18.80;90.10
9542;DHT22;4809;48.224;8.572;2022-08-19T08:25:48;18.90;89.90
9542;DHT22;4809;48.224;8.572;2022-08-19T08:28:15;18.90;89.80
9542;DHT22;4809;48.224;8.572;2022-08-19T08:30:41;18.90;89.90
9542;DHT22;4809;48.224;8.572;2022-08-19T08:33:09;18.90;89.40
9542;DHT22;4809;48.224;8.572;2022-08-19T08:35:35;18.80;89.80
9542;DHT22;4809;48.224;8.572;2022-08-19T08:38:02;18.80;89.50
9542;DHT22;4809;48.224;8.572;2022-08-19T08:40:32;18.80;89.80
9542;DHT22;4809;48.224;8.572;2022-08-19T08:45:35;18.70;89.40
9542;DHT22;4809;48.224;8.572;2022-08-19T08:48:16;18.70;90.00
9542;DHT22;4809;48.224;8.572;2022-08-19T08:50:45;18.70;90.20
9542;DHT22;4809;48.224;8.572;2022-08-19T08:53:14;18.70;90.20
9542;DHT22;4809;48.224;8.572;2022-08-19T08:55:41;18.80;90.00
9542;DHT22;4809;48.224;8.572;2022-08-19T08:58:19;18.90;89.00
9542;DHT22;4809;48.224;8.572;2022-08-19T09:00:48;18.90;89.40
9542;DHT22;4809;48.224;8.572;2022-08-19T09:03:21;18.90;89.80
9542;DHT22;4809;48.224;8.572;2022-08-19T09:06:04;19.00;89.80
9542;DHT22;4809;48.224;8.572;2022-08-19T09:11:15;19.10;89.00
9542;DHT22;4809;48.224;8.572;2022-08-19T09:16:21;18.80;88.20
9542;DHT22;4809;48.224;8.572;2022-08-19T09:18:55;18.70;88.50
9542;DHT22;4809;48.224;8.572;2022-08-19T09:21:23;18.70;89.30
9542;DHT22;4809;48.224;8.572;2022-08-19T09:23:50;18.60;89.50
9542;DHT22;4809;48.224;8.572;2022-08-19T09:26:20;18.60;89.90
9542;DHT22;4809;48.224;8.572;2022-08-19T09:28:48;18.60;89.80
9542;DHT22;4809;48.224;8.572;2022-08-19T09:31:17;18.60;90.00
9542;DHT22;4809;48.224;8.572;2022-08-19T09:33:43;18.60;90.00
9542;DHT22;4809;48.224;8.572;2022-08-19T09:36:12;18.50;89.70
9542;DHT22;4809;48.224;8.572;2022-08-19T09:38:39;18.40;90.00
9542;DHT22;4809;48.224;8.572;2022-08-19T09:41:10;18.40;90.30
9542;DHT22;4809;48.224;8.572;2022-08-19T09:43:39;18.40;90.30
9542;DHT22;4809;48.224;8.572;2022-08-19T09:46:07;18.40;90.40
9542;DHT22;4809;48.224;8.572;2022-08-19T09:48:35;18.40;90.30
9542;DHT22;4809;48.224;8.572;2022-08-19T09:51:12;18.30;90.50
9542;DHT22;4809;48.224;8.572;2022-08-19T09:53:42;18.30;90.40
9542;DHT22;4809;48.224;8.572;2022-08-19T09:56:08;18.20;90.60
9542;DHT22;4809;48.224;8.572;2022-08-19T09:58:36;18.20;90.60
9542;DHT22;4809;48.224;8.572;2022-08-19T10:01:02;18.20;90.70
9542;DHT22;4809;48.224;8.572;2022-08-19T10:03:30;18.20;90.80
9542;DHT22;4809;48.224;8.572;2022-08-19T10:05:57;18.30;90.70
9542;DHT22;4809;48.224;8.572;2022-08-19T10:08:26;18.20;90.30
9542;DHT22;4809;48.224;8.572;2022-08-19T10:10:53;18.20;90.50
9542;DHT22;4809;48.224;8.572;2022-08-19T10:13:23;18.20;90.30
9542;DHT22;4809;48.224;8.572;2022-08-19T10:15:51;18.20;90.40
9542;DHT22;4809;48.224;8.572;2022-08-19T10:18:18;18.20;90.40
9542;DHT22;4809;48.224;8.572;2022-08-19T10:20:45;18.30;90.50
9542;DHT22;4809;48.224;8.572;2022-08-19T10:23:11;18.40;90.40
9542;DHT22;4809;48.224;8.572;2022-08-19T10:25:37;18.40;90.10
9542;DHT22;4809;48.224;8.572;2022-08-19T10:28:03;18.50;90.30
9542;DHT22;4809;48.224;8.572;2022-08-19T10:30:29;18.50;90.00
9542;DHT22;4809;48.224;8.572;2022-08-19T10:32:55;18.60;90.00
9542;DHT22;4809;48.224;8.572;2022-08-19T10:35:21;18.60;89.30
9542;DHT22;4809;48.224;8.572;2022-08-19T10:37:47;18.60;89.30
9542;DHT22;4809;48.224;8.572;2022-08-19T10:40:12;18.60;89.20
9542;DHT22;4809;48.224;8.572;2022-08-19T10:42:38;18.60;89.50
9542;DHT22;4809;48.224;8.572;2022-08-19T10:45:05;18.70;89.30
9542;DHT22;4809;48.224;8.572;2022-08-19T10:47:32;18.80;89.40
9542;DHT22;4809;48.224;8.572;2022-08-19T10:49:58;18.90;89.50
9542;DHT22;4809;48.224;8.572;2022-08-19T10:52:56;19.00;88.70
9542;DHT22;4809;48.224;8.572;2022-08-19T10:55:23;19.10;88.10
9542;DHT22;4809;48.224;8.572;2022-08-19T10:58:13;19.20;87.30
9542;DHT22;4809;48.224;8.572;2022-08-19T11:00:40;19.20;87.00
9542;DHT22;4809;48.224;8.572;2022-08-19T11:03:06;19.30;87.70
9542;DHT22;4809;48.224;8.572;2022-08-19T11:05:31;19.40;87.00
9542;DHT22;4809;48.224;8.572;2022-08-19T11:07:57;19.50;86.20
9542;DHT22;4809;48.224;8.572;2022-08-19T11:10:22;19.60;86.40
9542;DHT22;4809;48.224;8.572;2022-08-19T11:12:49;19.60;85.70
9542;DHT22;4809;48.224;8.572;2022-08-19T11:15:20;19.60;85.40
9542;DHT22;4809;48.224;8.572;2022-08-19T11:17:46;19.60;84.50
9542;DHT22;4809;48.224;8.572;2022-08-19T11:20:12;19.70;84.80
9542;DHT22;4809;48.224;8.572;2022-08-19T11:22:39;19.60;84.50
9542;DHT22;4809;48.224;8.572;2022-08-19T11:25:06;19.60;84.80
9542;DHT22;4809;48.224;8.572;2022-08-19T11:27:32;19.60;84.20
9542;DHT22;4809;48.224;8.572;2022-08-19T11:29:57;19.60;84.70
9542;DHT22;4809;48.224;8.572;2022-08-19T11:32:23;19.60;84.60
9542;DHT22;4809;48.224;8.572;2022-08-19T11:34:49;19.70;84.10
9542;DHT22;4809;48.224;8.572;2022-08-19T11:37:14;19.80;83.40
9542;DHT22;4809;48.224;8.572;2022-08-19T11:39:41;19.90;83.90
9542;DHT22;4809;48.224;8.572;2022-08-19T11:42:07;20.00;83.80
9542;DHT22;4809;48.224;8.572;2022-08-19T11:44:53;20.10;82.60
9542;DHT22;4809;48.224;8.572;2022-08-19T11:47:19;20.10;81.60
9542;DHT22;4809;48.224;8.572;2022-08-19T11:49:46;20.10;81.10
9542;DHT22;4809;48.224;8.572;2022-08-19T11:52:12;20.00;82.40
9542;DHT22;4809;48.224;8.572;2022-08-19T11:54:38;20.00;81.90
9542;DHT22;4809;48.224;8.572;2022-08-19T11:57:04;20.10;81.70
9542;DHT22;4809;48.224;8.572;2022-08-19T11:59:30;20.10;81.60
9542;DHT22;4809;48.224;8.572;2022-08-19T12:01:56;20.00;80.60
9542;DHT22;4809;48.224;8.572;2022-08-19T12:04:23;19.90;81.00
9542;DHT22;4809;48.224;8.572;2022-08-19T12:06:49;19.80;82.00
9542;DHT22;4809;48.224;8.572;2022-08-19T12:09:15;19.70;82.20
9542;DHT22;4809;48.224;8.572;2022-08-19T12:11:43;19.50;83.20
9542;DHT22;4809;48.224;8.572;2022-08-19T12:14:10;19.40;83.00
9542;DHT22;4809;48.224;8.572;2022-08-19T12:16:37;19.30;83.40
9542;DHT22;4809;48.224;8.572;2022-08-19T12:19:04;19.20;83.30
9542;DHT22;4809;48.224;8.572;2022-08-19T12:21:33;19.20;83.40
9542;DHT22;4809;48.224;8.572;2022-08-19T12:24:00;19.20;83.70
9542;DHT22;4809;48.224;8.572;2022-08-19T12:26:27;19.30;83.20
9542;DHT22;4809;48.224;8.572;2022-08-19T12:28:53;19.30;83.70
9542;DHT22;4809;48.224;8.572;2022-08-19T12:31:19;19.40;83.50
9542;DHT22;4809;48.224;8.572;2022-08-19T12:33:46;19.50;83.10
9542;DHT22;4809;48.224;8.572;2022-08-19T12:36:13;19.70;82.60
9542;DHT22;4809;48.224;8.572;2022-08-19T12:38:40;19.70;82.50
9542;DHT22;4809;48.224;8.572;2022-08-19T12:41:08;19.70;81.50
9542;DHT22;4809;48.224;8.572;2022-08-19T12:43:34;19.70;81.20
9542;DHT22;4809;48.224;8.572;2022-08-19T12:46:01;19.80;81.30
9542;DHT22;4809;48.224;8.572;2022-08-19T12:48:27;19.80;80.50
9542;DHT22;4809;48.224;8.572;2022-08-19T12:50:54;19.80;81.10
9542;DHT22;4809;48.224;8.572;2022-08-19T12:53:20;19.80;81.10
9542;DHT22;4809;48.224;8.572;2022-08-19T12:55:45;19.70;80.40
9542;DHT22;4809;48.224;8.572;2022-08-19T12:58:11;19.70;80.50
9542;DHT22;4809;48.224;8.572;2022-08-19T13:00:38;19.70;80.80
9542;DHT22;4809;48.224;8.572;2022-08-19T13:03:04;19.80;80.60
9542;DHT22;4809;48.224;8.572;2022-08-19T13:05:32;19.80;80.90
9542;DHT22;4809;48.224;8.572;2022-08-19T13:07:59;19.90;81.00
9542;DHT22;4809;48.224;8.572;2022-08-19T13:10:29;19.80;80.30
9542;DHT22;4809;48.224;8.572;2022-08-19T13:12:56;19.80;80.30
9542;DHT22;4809;48.224;8.572;2022-08-19T13:15:23;19.90;80.30
9542;DHT22;4809;48.224;8.572;2022-08-19T13:17:50;19.80;80.00
9542;DHT22;4809;48.224;8.572;2022-08-19T13:20:18;19.90;79.80
9542;DHT22;4809;48.224;8.572;2022-08-19T13:22:45;20.00;80.10
9542;DHT22;4809;48.224;8.572;2022-08-19T13:25:11;20.10;79.80
9542;DHT22;4809;48.224;8.572;2022-08-19T13:27:38;20.10;78.40
9542;DHT22;4809;48.224;8.572;2022-08-19T13:30:06;20.10;79.50
9542;DHT22;4809;48.224;8.572;2022-08-19T13:32:50;20.10;78.80
9542;DHT22;4809;48.224;8.572;2022-08-19T13:35:35;20.20;78.70
9542;DHT22;4809;48.224;8.572;2022-08-19T13:38:00;20.10;78.50
9542;DHT22;4809;48.224;8.572;2022-08-19T13:40:31;20.10;78.90
9542;DHT22;4809;48.224;8.572;2022-08-19T13:42:59;20.00;78.00
9542;DHT22;4809;48.224;8.572;2022-08-19T13:45:27;19.90;78.10
9542;DHT22;4809;48.224;8.572;2022-08-19T13:47:55;19.90;77.90
9542;DHT22;4809;48.224;8.572;2022-08-19T13:50:24;19.90;77.20
9542;DHT22;4809;48.224;8.572;2022-08-19T13:52:51;19.90;77.60
9542;DHT22;4809;48.224;8.572;2022-08-19T13:55:17;19.90;77.30
9542;DHT22;4809;48.224;8.572;2022-08-19T13:57:43;20.10;77.00
9542;DHT22;4809;48.224;8.572;2022-08-19T14:00:15;20.20;76.90
9542;DHT22;4809;48.224;8.572;2022-08-19T14:02:43;20.40;77.10
9542;DHT22;4809;48.224;8.572;2022-08-19T14:05:13;20.60;75.80
9542;DHT22;4809;48.224;8.572;2022-08-19T14:07:39;20.70;75.30
9542;DHT22;4809;48.224;8.572;2022-08-19T14:10:07;20.90;75.40
9542;DHT22;4809;48.224;8.572;2022-08-19T14:12:33;21.00;74.70
9542;DHT22;4809;48.224;8.572;2022-08-19T14:14:59;21.10;73.40
9542;DHT22;4809;48.224;8.572;2022-08-19T14:17:25;21.30;72.20
9542;DHT22;4809;48.224;8.572;2022-08-19T14:19:59;21.60;73.00
9542;DHT22;4809;48.224;8.572;2022-08-19T14:22:29;21.80;72.00
9542;DHT22;4809;48.224;8.572;2022-08-19T14:24:56;22.10;70.60
9542;DHT22;4809;48.224;8.572;2022-08-19T14:27:22;22.20;70.50
9542;DHT22;4809;48.224;8.572;2022-08-19T14:29:49;22.40;70.60
9542;DHT22;4809;48.224;8.572;2022-08-19T14:32:15;22.40;70.10
9542;DHT22;4809;48.224;8.572;2022-08-19T14:34:41;22.20;69.30
9542;DHT22;4809;48.224;8.572;2022-08-19T14:37:06;22.10;70.30
9542;DHT22;4809;48.224;8.572;2022-08-19T14:39:33;21.90;70.70
9542;DHT22;4809;48.224;8.572;2022-08-19T14:41:59;21.80;70.70
9542;DHT22;4809;48.224;8.572;2022-08-19T14:44:25;21.80;70.80
9542;DHT22;4809;48.224;8.572;2022-08-19T14:46:50;21.80;70.50
9542;DHT22;4809;48.224;8.572;2022-08-19T14:49:17;21.80;70.60
9542;DHT22;4809;48.224;8.572;2022-08-19T14:51:43;22.00;70.80
9542;DHT22;4809;48.224;8.572;2022-08-19T14:54:10;22.00;69.60
9542;DHT22;4809;48.224;8.572;2022-08-19T14:56:37;22.10;69.10
9542;DHT22;4809;48.224;8.572;2022-08-19T14:59:05;22.10;70.10
9542;DHT22;4809;48.224;8.572;2022-08-19T15:01:31;22.10;69.30
9542;DHT22;4809;48.224;8.572;2022-08-19T15:03:57;22.00;69.50
9542;DHT22;4809;48.224;8.572;2022-08-19T15:06:24;22.00;69.20
9542;DHT22;4809;48.224;8.572;2022-08-19T15:08:50;21.80;69.50
9542;DHT22;4809;48.224;8.572;2022-08-19T15:11:19;21.80;69.40
9542;DHT22;4809;48.224;8.572;2022-08-19T15:13:46;21.60;68.80
9542;DHT22;4809;48.224;8.572;2022-08-19T15:16:13;21.50;69.70
9542;DHT22;4809;48.224;8.572;2022-08-19T15:18:41;21.50;69.70
9542;DHT22;4809;48.224;8.572;2022-08-19T15:21:10;21.40;69.50
9542;DHT22;4809;48.224;8.572;2022-08-19T15:23:38;21.40;70.20
9542;DHT22;4809;48.224;8.572;2022-08-19T15:26:04;21.40;70.50
9542;DHT22;4809;48.224;8.572;2022-08-19T15:28:30;21.50;70.20
9542;DHT22;4809;48.224;8.572;2022-08-19T15:30:58;21.60;69.90
9542;DHT22;4809;48.224;8.572;2022-08-19T15:33:23;21.60;70.70
9542;DHT22;4809;48.224;8.572;2022-08-19T15:35:49;21.60;70.20
9542;DHT22;4809;48.224;8.572;2022-08-19T15:38:17;21.60;70.70
9542;DHT22;4809;48.224;8.572;2022-08-19T15:40:48;21.50;71.00
9542;DHT22;4809;48.224;8.572;2022-08-19T15:43:16;21.40;71.00
9542;DHT22;4809;48.224;8.572;2022-08-19T15:45:46;21.30;71.50
9542;DHT22;4809;48.224;8.572;2022-08-19T15:48:12;21.30;71.80
9542;DHT22;4809;48.224;8.572;2022-08-19T15:50:37;21.30;71.80
9542;DHT22;4809;48.224;8.572;2022-08-19T15:53:08;21.20;72.10
9542;DHT22;4809;48.224;8.572;2022-08-19T15:55:42;21.10;72.20
9542;DHT22;4809;48.224;8.572;2022-08-19T15:58:11;21.00;73.10
9542;DHT22;4809;48.224;8.572;2022-08-19T16:01:03;20.90;73.30
9542;DHT22;4809;48.224;8.572;2022-08-19T16:03:48;20.80;74.10
9542;DHT22;4809;48.224;8.572;2022-08-19T16:06:34;20.70;74.50
9542;DHT22;4809;48.224;8.572;2022-08-19T16:09:02;20.60;75.00
9542;DHT22;4809;48.224;8.572;2022-08-19T16:11:33;20.60;75.10
9542;DHT22;4809;48.224;8.572;2022-08-19T16:14:00;20.60;74.80
9542;DHT22;4809;48.224;8.572;2022-08-19T16:16:32;20.50;74.90
9542;DHT22;4809;48.224;8.572;2022-08-19T16:19:02;20.40;75.00